createdAt,value
2022-08-05T00:01:27.406Z,14.55
2022-08-05T00:03:57.055Z,16.50
2022-08-05T00:06:32.236Z,14.85
2022-08-05T00:09:00.643Z,14.40
2022-08-05T00:11:34.668Z,14.63
2022-08-05T00:14:12.077Z,15.90
2022-08-05T00:16:53.674Z,15.57
2022-08-05T00:19:24.904Z,14.50
2022-08-05T00:21:59.974Z,15.77
2022-08-05T00:24:30.927Z,14.77
2022-08-05T00:27:01.799Z,14.40
2022-08-05T00:29:37.646Z,14.40
2022-08-05T00:32:13.343Z,14.98
2022-08-05T00:35:04.095Z,15.10
2022-08-05T00:37:50.987Z,14.20
2022-08-05T00:40:27.299Z,15.02
2022-08-05T00:42:59.891Z,14.77
2022-08-05T00:45:38.986Z,14.93
2022-08-05T00:48:15.659Z,15.23
2022-08-05T00:50:46.096Z,15.55
2022-08-05T00:53:44.908Z,14.63
2022-08-05T00:56:04.294Z,15.27
2022-08-05T00:58:31.185Z,15.10
2022-08-05T01:00:58.054Z,15.25
2022-08-05T01:03:31.023Z,15.13
2022-08-05T01:06:00.450Z,15.85
2022-08-05T01:08:41.801Z,14.75
2022-08-05T01:11:24.447Z,15.05
2022-08-05T01:14:52.235Z,15.18
2022-08-05T01:17:53.642Z,14.88
2022-08-05T01:20:27.136Z,15.50
2022-08-05T01:22:57.444Z,15.98
2022-08-05T01:26:01.753Z,16.10
2022-08-05T01:28:45.038Z,15.77
2022-08-05T01:31:29.771Z,15.88
2022-08-05T01:34:12.422Z,15.70
2022-08-05T01:36:47.056Z,15.55
2022-08-05T01:39:45.768Z,15.60
2022-08-05T01:42:06.828Z,15.57
2022-08-05T01:44:39.225Z,15.90
2022-08-05T01:47:09.993Z,15.30
2022-08-05T01:50:00.503Z,15.57
2022-08-05T01:52:28.092Z,15.27
2022-08-05T01:55:02.295Z,15.57
2022-08-05T01:58:10.300Z,16.10
2022-08-05T02:00:30.240Z,15.43
2022-08-05T02:03:04.489Z,15.88
2022-08-05T02:05:36.601Z,15.90
2022-08-05T02:08:05.025Z,15.73
2022-08-05T02:10:45.002Z,15.85
2022-08-05T02:13:18.938Z,15.48
2022-08-05T02:15:54.266Z,15.32
2022-08-05T02:18:31.307Z,15.85
2022-08-05T02:21:15.550Z,16.73
2022-08-05T02:23:46.460Z,15.40
2022-08-05T02:26:21.778Z,16.17
2022-08-05T02:28:50.227Z,16.55
2022-08-05T02:31:38.419Z,15.75
2022-08-05T02:34:10.120Z,16.77
2022-08-05T02:39:09.273Z,15.18
2022-08-05T02:41:58.164Z,15.45
2022-08-05T02:44:25.850Z,16.02
2022-08-05T02:47:00.449Z,16.40
2022-08-05T02:49:36.658Z,16.77
2022-08-05T02:52:08.672Z,16.88
2022-08-05T02:54:41.510Z,16.77
2022-08-05T02:58:10.618Z,16.65
2022-08-05T03:00:01.378Z,18.37
2022-08-05T03:02:36.602Z,16.65
2022-08-05T03:05:05.227Z,17.15
2022-08-05T03:08:00.705Z,16.60
2022-08-05T03:10:21.961Z,17.33
2022-08-05T03:12:53.587Z,16.60
2022-08-05T03:15:23.558Z,17.98
2022-08-05T03:17:54.197Z,17.15
2022-08-05T03:20:23.635Z,17.30
2022-08-05T03:22:52.570Z,17.27
2022-08-05T03:25:32.683Z,17.15
2022-08-05T03:28:02.307Z,18.10
2022-08-05T03:30:34.567Z,18.10
2022-08-05T03:33:07.267Z,18.95
2022-08-05T03:35:40.774Z,18.52
2022-08-05T03:38:12.087Z,17.20
2022-08-05T03:40:45.366Z,18.52
2022-08-05T03:43:58.722Z,18.08
2022-08-05T03:46:02.850Z,18.35
2022-08-05T03:48:30.615Z,18.08
2022-08-05T03:52:39.166Z,18.42
2022-08-05T03:55:53.543Z,18.90
2022-08-05T03:57:16.247Z,19.00
2022-08-05T04:00:16.676Z,17.65
2022-08-05T04:02:58.611Z,17.27
2022-08-05T04:05:34.619Z,16.25
2022-08-05T04:08:29.759Z,16.75
2022-08-05T04:10:55.094Z,15.38
2022-08-05T04:13:22.129Z,16.63
2022-08-05T04:15:52.702Z,15.20
2022-08-05T04:18:30.479Z,18.13
2022-08-05T04:20:58.203Z,15.52
2022-08-05T04:23:57.189Z,15.68
2022-08-05T04:26:15.617Z,15.80
2022-08-05T04:28:51.136Z,15.52
2022-08-05T04:31:19.922Z,15.65
2022-08-05T04:34:18.259Z,15.15
2022-08-05T04:36:46.163Z,15.95
2022-08-05T04:39:18.615Z,14.73
2022-08-05T04:41:46.292Z,15.07
2022-08-05T04:44:20.979Z,15.43
2022-08-05T04:46:51.160Z,14.57
2022-08-05T04:49:24.673Z,14.55
2022-08-05T04:52:05.540Z,14.35
2022-08-05T04:54:34.605Z,15.25
2022-08-05T04:57:01.605Z,14.32
2022-08-05T04:59:38.924Z,14.50
2022-08-05T05:02:37.593Z,14.98
2022-08-05T05:05:01.968Z,14.93
2022-08-05T05:07:32.691Z,14.68
2022-08-05T05:10:02.290Z,14.77
2022-08-05T05:12:30.527Z,15.02
2022-08-05T05:14:57.305Z,14.68
2022-08-05T05:17:56.974Z,14.75
2022-08-05T05:20:13.526Z,14.15
2022-08-05T05:22:43.945Z,14.82
2022-08-05T05:25:16.543Z,14.73
2022-08-05T05:27:48.801Z,14.50
2022-08-05T05:30:30.555Z,15.07
2022-08-05T05:33:08.804Z,14.45
2022-08-05T05:35:42.647Z,15.52
2022-08-05T05:38:13.172Z,15.57
2022-08-05T05:40:49.493Z,15.00
2022-08-05T05:43:54.399Z,14.02
2022-08-05T05:46:17.815Z,13.68
2022-08-05T05:48:48.297Z,13.57
2022-08-05T05:51:23.011Z,14.93
2022-08-05T05:53:57.345Z,12.90
2022-08-05T05:56:33.185Z,13.48
2022-08-05T05:59:07.523Z,13.25
2022-08-05T06:01:38.981Z,12.10
2022-08-05T06:04:12.852Z,13.23
2022-08-05T06:06:42.817Z,11.75
2022-08-05T06:09:17.292Z,12.05
2022-08-05T06:11:59.480Z,11.20
2022-08-05T06:14:28.873Z,11.27
2022-08-05T06:16:56.814Z,12.35
2022-08-05T06:19:35.106Z,11.40
2022-08-05T06:22:06.987Z,11.25
2022-08-05T06:24:35.151Z,11.85
2022-08-05T06:27:04.066Z,11.77
2022-08-05T06:29:46.724Z,11.15
2022-08-05T06:32:25.307Z,11.50
2022-08-05T06:34:56.581Z,10.35
2022-08-05T06:37:39.449Z,8.70
2022-08-05T06:40:13.865Z,8.48
2022-08-05T06:42:44.619Z,7.63
2022-08-05T06:45:20.704Z,7.68
2022-08-05T06:48:36.565Z,7.05
2022-08-05T06:50:35.386Z,7.25
2022-08-05T06:53:11.493Z,7.32
2022-08-05T06:55:41.916Z,7.03
2022-08-05T06:58:29.746Z,6.88
2022-08-05T07:01:01.275Z,7.78
2022-08-05T07:03:32.671Z,6.93
2022-08-05T07:08:28.807Z,6.55
2022-08-05T07:10:55.895Z,6.60
2022-08-05T07:13:59.899Z,6.72
2022-08-05T07:18:00.012Z,6.70
2022-08-05T07:22:28.389Z,6.97
2022-08-05T07:25:22.065Z,6.60
2022-08-05T07:27:58.271Z,6.57
2022-08-05T07:30:34.476Z,7.00
2022-08-05T07:33:05.417Z,6.88
2022-08-05T07:36:05.227Z,6.68
2022-08-05T07:38:34.489Z,6.60
2022-08-05T07:42:07.317Z,7.03
2022-08-05T07:43:58.680Z,6.85
2022-08-05T07:46:28.033Z,6.47
2022-08-05T07:49:03.302Z,6.47
2022-08-05T07:51:48.893Z,6.65
2022-08-05T07:54:23.297Z,6.45
2022-08-05T07:57:14.690Z,6.78
2022-08-05T07:59:41.262Z,7.07
2022-08-05T08:02:15.737Z,6.85
2022-08-05T08:04:48.199Z,5.90
2022-08-05T08:09:43.661Z,6.70
2022-08-05T08:12:37.319Z,6.15
2022-08-05T08:15:02.588Z,6.22
2022-08-05T08:17:32.568Z,6.82
2022-08-05T08:20:21.382Z,6.15
2022-08-05T08:22:57.742Z,6.68
2022-08-05T08:25:26.922Z,6.65
2022-08-05T08:28:18.438Z,6.88
2022-08-05T08:30:58.715Z,7.00
2022-08-05T08:33:25.538Z,7.10
2022-08-05T08:36:12.768Z,7.07
2022-08-05T08:38:41.754Z,7.15
2022-08-05T08:41:14.056Z,6.63
2022-08-05T08:45:18.248Z,6.60
2022-08-05T08:46:32.068Z,6.82
2022-08-05T08:49:08.244Z,7.00
2022-08-05T08:52:03.487Z,6.65
2022-08-05T08:54:34.150Z,6.85
2022-08-05T08:57:11.200Z,6.20
2022-08-05T08:59:38.982Z,6.50
2022-08-05T09:02:09.114Z,6.82
2022-08-05T09:04:57.892Z,7.18
2022-08-05T09:07:29.227Z,7.23
2022-08-05T09:10:07.059Z,6.90
2022-08-05T09:12:35.252Z,7.03
2022-08-05T09:15:06.537Z,6.90
2022-08-05T09:20:11.788Z,7.05
2022-08-05T09:23:04.841Z,7.50
2022-08-05T09:26:02.328Z,6.93
2022-08-05T09:28:32.449Z,7.45
2022-08-05T09:31:23.542Z,7.72
2022-08-05T09:34:01.590Z,7.70
2022-08-05T09:36:55.697Z,7.80
2022-08-05T09:39:39.409Z,7.80
2022-08-05T09:42:24.084Z,7.60
2022-08-05T09:44:57.395Z,8.43
2022-08-05T09:47:48.030Z,7.45
2022-08-05T09:50:38.497Z,7.85
2022-08-05T09:53:07.295Z,8.25
2022-08-05T09:55:58.062Z,8.40
2022-08-05T09:58:23.846Z,8.52
2022-08-05T10:01:15.196Z,8.23
2022-08-05T10:04:16.222Z,8.07
2022-08-05T10:06:58.956Z,8.35
2022-08-05T10:09:29.586Z,8.43
2022-08-05T10:12:18.882Z,8.37
2022-08-05T10:15:27.609Z,8.00
2022-08-05T10:18:11.236Z,8.45
2022-08-05T10:20:52.744Z,8.90
2022-08-05T10:23:55.436Z,9.52
2022-08-05T10:26:14.340Z,8.88
2022-08-05T10:28:46.972Z,8.27
2022-08-05T10:32:51.958Z,8.93
2022-08-05T10:34:04.059Z,9.00
2022-08-05T10:36:36.669Z,9.48
2022-08-05T10:39:25.250Z,9.68
2022-08-05T10:42:11.831Z,9.38
2022-08-05T10:44:43.500Z,9.90
2022-08-05T10:47:25.903Z,9.07
2022-08-05T10:50:20.754Z,9.00
2022-08-05T10:53:01.125Z,9.43
2022-08-05T10:55:38.625Z,9.90
2022-08-05T10:58:17.969Z,9.00
2022-08-05T11:00:54.889Z,9.55
2022-08-05T11:03:24.624Z,9.27
2022-08-05T11:09:16.690Z,9.60
2022-08-05T11:11:53.188Z,10.07
2022-08-05T11:15:11.571Z,9.77
2022-08-05T11:17:59.485Z,9.63
2022-08-05T11:20:55.319Z,8.88
2022-08-05T11:24:03.228Z,8.38
2022-08-05T11:26:43.160Z,9.80
2022-08-05T11:29:40.282Z,8.75
2022-08-05T11:32:27.939Z,9.57
2022-08-05T11:34:57.305Z,9.02
2022-08-05T11:38:28.778Z,10.35
2022-08-05T11:41:54.843Z,9.52
2022-08-05T11:44:11.604Z,9.30
2022-08-05T11:46:58.134Z,8.88
2022-08-05T11:49:37.189Z,8.60
2022-08-05T11:52:11.442Z,8.95
2022-08-05T11:54:40.329Z,9.32
2022-08-05T11:57:25.024Z,9.35
2022-08-05T11:59:54.787Z,9.65
2022-08-05T12:02:30.920Z,8.98
2022-08-05T12:05:07.987Z,8.80
2022-08-05T12:08:08.342Z,9.35
2022-08-05T12:10:43.072Z,9.15
2022-08-05T12:13:27.856Z,9.02
2022-08-05T12:16:17.611Z,8.52
2022-08-05T12:18:52.716Z,8.75
2022-08-05T12:21:32.098Z,8.95
2022-08-05T12:24:05.010Z,9.23
2022-08-05T12:26:44.025Z,9.77
2022-08-05T12:29:22.491Z,9.35
2022-08-05T12:31:53.435Z,9.43
2022-08-05T12:34:31.642Z,9.32
2022-08-05T12:37:10.761Z,9.35
2022-08-05T12:39:43.315Z,8.77
2022-08-05T12:42:20.789Z,9.15
2022-08-05T12:44:48.192Z,9.07
2022-08-05T12:47:27.552Z,9.00
2022-08-05T12:50:04.166Z,8.48
2022-08-05T12:52:39.177Z,8.10
2022-08-05T12:55:26.406Z,8.45
2022-08-05T12:58:50.287Z,7.57
2022-08-05T13:02:00.259Z,8.00
2022-08-05T13:03:43.076Z,8.40
2022-08-05T13:06:16.618Z,8.50
2022-08-05T13:08:50.799Z,8.27
2022-08-05T13:12:02.038Z,8.35
2022-08-05T13:14:24.762Z,8.10
2022-08-05T13:17:03.138Z,8.38
2022-08-05T13:19:40.367Z,7.70
2022-08-05T13:22:27.818Z,7.57
2022-08-05T13:24:58.101Z,8.00
2022-08-05T13:27:37.707Z,8.77
2022-08-05T13:30:34.451Z,7.85
2022-08-05T13:33:00.838Z,7.63
2022-08-05T13:35:31.429Z,8.68
2022-08-05T13:38:20.432Z,7.28
2022-08-05T13:40:57.184Z,8.38
2022-08-05T13:43:24.103Z,7.95
2022-08-05T13:46:11.712Z,7.70
2022-08-05T13:48:57.741Z,7.85
2022-08-05T13:51:36.478Z,8.10
2022-08-05T13:54:11.581Z,7.45
2022-08-05T13:56:44.992Z,7.60
2022-08-05T13:59:24.245Z,7.70
2022-08-05T14:01:56.917Z,7.47
2022-08-05T14:04:49.648Z,7.47
2022-08-05T14:07:25.823Z,7.60
2022-08-05T14:10:18.938Z,7.72
2022-08-05T14:12:55.381Z,7.70
2022-08-05T14:16:05.724Z,7.38
2022-08-05T14:18:17.584Z,7.40
2022-08-05T14:20:48.929Z,7.57
2022-08-05T14:23:24.970Z,7.80
2022-08-05T14:25:59.005Z,7.80
2022-08-05T14:28:30.044Z,7.32
2022-08-05T14:30:58.579Z,7.75
2022-08-05T14:33:25.709Z,7.35
2022-08-05T14:35:54.405Z,7.38
2022-08-05T14:38:32.682Z,7.32
2022-08-05T14:41:06.171Z,7.22
2022-08-05T14:43:57.434Z,7.47
2022-08-05T14:46:28.170Z,7.15
2022-08-05T14:48:59.528Z,7.20
2022-08-05T14:51:28.666Z,7.38
2022-08-05T14:54:26.306Z,6.90
2022-08-05T14:56:46.607Z,7.38
2022-08-05T14:59:15.733Z,8.15
2022-08-05T15:01:49.164Z,7.82
2022-08-05T15:04:20.513Z,7.85
2022-08-05T15:06:50.381Z,8.38
2022-08-05T15:09:52.533Z,7.55
2022-08-05T15:12:09.524Z,9.00
2022-08-05T15:14:48.436Z,7.23
2022-08-05T15:17:45.059Z,7.70
2022-08-05T15:20:05.207Z,7.65
2022-08-05T15:22:32.796Z,8.00
2022-08-05T15:25:00.561Z,7.95
2022-08-05T15:27:38.940Z,7.57
2022-08-05T15:30:11.056Z,7.40
2022-08-05T15:32:41.129Z,7.60
2022-08-05T15:35:10.650Z,7.55
2022-08-05T15:38:34.260Z,7.60
2022-08-05T15:41:04.792Z,7.25
2022-08-05T15:43:20.553Z,7.53
2022-08-05T15:46:00.088Z,7.53
2022-08-05T15:48:28.394Z,7.45
2022-08-05T15:50:55.331Z,7.88
2022-08-05T15:53:26.598Z,7.97
2022-08-05T15:56:13.395Z,7.70
2022-08-05T15:58:41.293Z,8.00
2022-08-05T16:01:16.173Z,7.75
2022-08-05T16:03:50.243Z,8.32
2022-08-05T16:06:20.377Z,7.45
2022-08-05T16:08:50.294Z,8.00
2022-08-05T16:11:21.051Z,7.78
2022-08-05T16:14:05.613Z,7.80
2022-08-05T16:16:33.334Z,8.27
2022-08-05T16:19:00.245Z,7.75
2022-08-05T16:22:00.588Z,7.53
2022-08-05T16:24:40.424Z,7.32
2022-08-05T16:27:03.459Z,7.65
2022-08-05T16:29:31.365Z,7.65
2022-08-05T16:32:06.529Z,7.78
2022-08-05T16:34:36.890Z,7.57
2022-08-05T16:38:03.293Z,7.40
2022-08-05T16:40:04.800Z,7.45
2022-08-05T16:42:34.584Z,8.05
2022-08-05T16:45:02.380Z,8.02
2022-08-05T16:47:55.499Z,8.40
2022-08-05T16:50:25.525Z,7.40
2022-08-05T16:52:52.787Z,7.65
2022-08-05T16:55:23.333Z,7.50
2022-08-05T16:58:00.031Z,7.65
2022-08-05T17:00:35.119Z,7.75
2022-08-05T17:03:13.297Z,7.78
2022-08-05T17:05:51.517Z,7.45
2022-08-05T17:08:35.903Z,7.70
2022-08-05T17:11:12.820Z,7.63
2022-08-05T17:13:44.480Z,7.57
2022-08-05T17:16:32.646Z,7.35
2022-08-05T17:18:58.902Z,7.95
2022-08-05T17:21:25.701Z,7.45
2022-08-05T17:24:04.936Z,7.80
2022-08-05T17:26:36.370Z,7.40
2022-08-05T17:29:07.531Z,8.80
2022-08-05T17:31:56.873Z,8.25
2022-08-05T17:34:29.920Z,8.20
2022-08-05T17:36:59.835Z,7.90
2022-08-05T17:39:34.039Z,8.38
2022-08-05T17:42:17.616Z,9.23
2022-08-05T17:44:51.185Z,13.23
2022-08-05T17:47:22.989Z,9.07
2022-08-05T17:50:03.843Z,8.98
2022-08-05T17:52:53.411Z,8.50
2022-08-05T17:55:22.885Z,8.98
2022-08-05T17:58:02.603Z,8.95
2022-08-05T18:00:29.915Z,9.05
2022-08-05T18:02:57.100Z,9.82
2022-08-05T18:05:24.291Z,8.82
2022-08-05T18:07:56.736Z,9.00
2022-08-05T18:10:23.936Z,9.13
2022-08-05T18:12:51.426Z,9.85
2022-08-05T18:15:18.332Z,9.38
2022-08-05T18:17:58.889Z,9.52
2022-08-05T18:20:31.891Z,8.70
2022-08-05T18:23:00.641Z,9.48
2022-08-05T18:25:39.251Z,8.68
2022-08-05T18:28:07.498Z,9.73
2022-08-05T18:30:38.878Z,9.50
2022-08-05T18:33:06.362Z,10.13
2022-08-05T18:35:59.972Z,10.32
2022-08-05T18:38:25.920Z,10.40
2022-08-05T18:41:53.191Z,10.02
2022-08-05T18:43:42.594Z,11.02
2022-08-05T18:46:10.568Z,9.82
2022-08-05T18:48:41.491Z,9.63
2022-08-05T18:52:06.402Z,9.77
2022-08-05T18:54:15.113Z,9.45
2022-08-05T18:56:51.307Z,10.35
2022-08-05T18:59:43.924Z,10.13
2022-08-05T19:02:11.337Z,9.05
2022-08-05T19:05:01.795Z,9.57
2022-08-05T19:07:45.625Z,10.07
2022-08-05T19:10:15.056Z,10.80
2022-08-05T19:12:43.209Z,10.57
2022-08-05T19:15:54.721Z,11.15
2022-08-05T19:18:08.507Z,12.10
2022-08-05T19:20:37.154Z,12.18
2022-08-05T19:23:08.785Z,12.10
2022-08-05T19:26:02.102Z,11.93
2022-08-05T19:28:32.774Z,12.40
2022-08-05T19:31:00.907Z,12.30
2022-08-05T19:33:35.136Z,11.88
2022-08-05T19:36:09.083Z,10.90
2022-08-05T19:38:36.601Z,11.82
2022-08-05T19:41:06.973Z,11.27
2022-08-05T19:44:05.375Z,10.73
2022-08-05T19:46:29.713Z,11.00
2022-08-05T19:49:00.858Z,10.83
2022-08-05T19:52:05.732Z,11.63
2022-08-05T19:54:21.832Z,11.35
2022-08-05T19:56:54.473Z,10.40
2022-08-05T20:00:00.732Z,11.38
2022-08-05T20:02:08.480Z,11.40
2022-08-05T20:04:35.550Z,11.80
2022-08-05T20:07:03.569Z,11.30
2022-08-05T20:09:55.062Z,10.77
2022-08-05T20:12:25.038Z,11.05
2022-08-05T20:14:53.084Z,11.70
2022-08-05T20:17:23.294Z,11.48
2022-08-05T20:19:56.623Z,11.60
2022-08-05T20:22:27.225Z,11.45
2022-08-05T20:24:55.386Z,12.02
2022-08-05T20:27:26.714Z,12.63
2022-08-05T20:29:58.916Z,12.13
2022-08-05T20:34:54.495Z,11.80
2022-08-05T20:38:04.964Z,12.50
2022-08-05T20:40:09.164Z,12.07
2022-08-05T20:42:36.173Z,12.02
2022-08-05T20:45:04.688Z,11.52
2022-08-05T20:47:32.864Z,11.52
2022-08-05T20:50:02.137Z,11.80
2022-08-05T20:52:31.458Z,12.30
2022-08-05T20:55:58.960Z,11.93
2022-08-05T20:57:45.923Z,11.95
2022-08-05T21:00:36.397Z,11.32
2022-08-05T21:03:06.336Z,12.13
2022-08-05T21:05:47.637Z,12.00
2022-08-05T21:08:26.430Z,11.68
2022-08-05T21:10:55.205Z,11.85
2022-08-05T21:13:37.859Z,12.73
2022-08-05T21:16:12.554Z,11.55
2022-08-05T21:18:42.999Z,11.40
2022-08-05T21:21:12.051Z,12.00
2022-08-05T21:23:39.136Z,11.43
2022-08-05T21:26:08.340Z,11.98
2022-08-05T21:28:40.649Z,11.98
2022-08-05T21:31:14.913Z,11.93
2022-08-05T21:33:43.546Z,11.35
2022-08-05T21:36:27.542Z,11.52
2022-08-05T21:38:57.285Z,11.50
2022-08-05T21:41:26.064Z,11.38
2022-08-05T21:44:04.066Z,12.00
2022-08-05T21:46:34.443Z,12.25
2022-08-05T21:49:04.750Z,11.30
2022-08-05T21:52:21.971Z,12.57
2022-08-05T21:54:30.883Z,10.82
2022-08-05T21:57:28.467Z,11.95
2022-08-05T22:00:03.382Z,13.07
2022-08-05T22:02:32.786Z,11.93
2022-08-05T22:05:00.628Z,12.13
2022-08-05T22:07:40.228Z,11.93
2022-08-05T22:10:17.341Z,13.57
2022-08-05T22:12:53.897Z,12.63
2022-08-05T22:15:56.412Z,12.10
2022-08-05T22:18:08.600Z,12.57
2022-08-05T22:20:38.993Z,11.80
2022-08-05T22:24:02.453Z,12.52
2022-08-05T22:26:31.172Z,12.30
2022-08-05T22:28:58.153Z,12.10
2022-08-05T22:31:25.115Z,12.63
2022-08-05T22:34:01.221Z,12.30
2022-08-05T22:36:29.030Z,12.55
2022-08-05T22:38:56.708Z,12.20
2022-08-05T22:41:26.200Z,12.32
2022-08-05T22:44:12.085Z,11.93
2022-08-05T22:46:40.977Z,11.73
2022-08-05T22:49:23.418Z,12.10
2022-08-05T22:52:06.018Z,12.02
2022-08-05T22:54:38.791Z,12.55
2022-08-05T22:57:06.503Z,11.98
2022-08-05T22:59:48.411Z,12.27
2022-08-05T23:02:29.234Z,11.70
2022-08-05T23:05:01.505Z,12.07
2022-08-05T23:07:31.626Z,12.23
2022-08-05T23:10:01.490Z,11.55
2022-08-05T23:12:32.576Z,12.40
2022-08-05T23:15:03.521Z,12.13
2022-08-05T23:17:37.576Z,12.35
2022-08-05T23:20:16.616Z,12.60
2022-08-05T23:22:48.368Z,12.38
2022-08-05T23:25:51.179Z,12.27
2022-08-05T23:28:07.620Z,13.07
2022-08-05T23:30:39.638Z,11.85
2022-08-05T23:33:22.554Z,12.25
2022-08-05T23:35:56.117Z,12.00
2022-08-05T23:38:24.157Z,12.38
2022-08-05T23:40:52.599Z,12.60
2022-08-05T23:43:25.779Z,11.95
2022-08-05T23:46:20.888Z,11.93
2022-08-05T23:49:01.228Z,12.30
2022-08-05T23:51:54.181Z,12.00
2022-08-05T23:54:29.951Z,12.52
2022-08-05T23:57:03.355Z,12.45
